createdAt,value
2022-08-24T00:00:35.347Z,99.90
2022-08-24T00:03:02.965Z,99.90
2022-08-24T00:05:30.417Z,99.90
2022-08-24T00:07:57.815Z,99.90
2022-08-24T00:10:25.435Z,99.90
2022-08-24T00:12:52.534Z,99.90
2022-08-24T00:15:19.800Z,99.90
2022-08-24T00:17:46.780Z,99.90
2022-08-24T00:20:14.439Z,99.90
2022-08-24T00:22:42.000Z,99.90
2022-08-24T00:25:11.614Z,99.90
2022-08-24T00:27:41.254Z,99.90
2022-08-24T00:30:15.505Z,99.90
2022-08-24T00:32:45.904Z,99.90
2022-08-24T00:35:14.866Z,99.90
2022-08-24T00:37:42.046Z,99.90
2022-08-24T00:40:12.917Z,99.90
2022-08-24T00:42:40.880Z,99.90
2022-08-24T00:45:11.509Z,99.90
2022-08-24T00:47:55.908Z,99.90
2022-08-24T00:50:29.250Z,99.90
2022-08-24T00:53:00.157Z,99.90
2022-08-24T00:55:35.294Z,99.90
2022-08-24T00:58:17.121Z,99.90
2022-08-24T01:00:54.914Z,99.90
2022-08-24T01:03:22.313Z,99.90
2022-08-24T01:05:50.935Z,99.90
2022-08-24T01:08:17.985Z,99.90
2022-08-24T01:10:48.593Z,99.90
2022-08-24T01:13:15.861Z,99.90
2022-08-24T01:15:45.836Z,99.90
2022-08-24T01:18:36.096Z,99.90
2022-08-24T01:21:18.054Z,99.90
2022-08-24T01:23:49.578Z,99.90
2022-08-24T01:26:24.207Z,99.90
2022-08-24T01:28:57.356Z,99.90
2022-08-24T01:31:25.594Z,99.90
2022-08-24T01:33:54.470Z,99.90
2022-08-24T01:36:32.243Z,99.90
2022-08-24T01:39:04.215Z,99.90
2022-08-24T01:41:31.204Z,99.90
2022-08-24T01:43:59.204Z,99.90
2022-08-24T01:46:26.748Z,99.90
2022-08-24T01:48:54.059Z,99.90
2022-08-24T01:51:21.453Z,99.90
2022-08-24T01:53:49.421Z,99.90
2022-08-24T01:56:16.783Z,99.90
2022-08-24T01:58:47.400Z,99.90
2022-08-24T02:01:17.744Z,99.90
2022-08-24T02:03:45.568Z,99.90
2022-08-24T02:06:17.592Z,99.90
2022-08-24T02:08:44.820Z,99.90
2022-08-24T02:11:12.322Z,99.90
2022-08-24T02:13:41.112Z,99.90
2022-08-24T02:16:08.403Z,99.90
2022-08-24T02:18:37.209Z,99.90
2022-08-24T02:21:04.296Z,99.90
2022-08-24T02:23:31.132Z,99.90
2022-08-24T02:25:58.227Z,99.90
2022-08-24T02:28:25.681Z,99.90
2022-08-24T02:30:53.717Z,99.90
2022-08-24T02:33:20.655Z,99.90
2022-08-24T02:35:47.838Z,99.90
2022-08-24T02:38:14.950Z,99.90
2022-08-24T02:40:42.456Z,99.90
2022-08-24T02:43:09.532Z,99.90
2022-08-24T02:45:42.457Z,99.90
2022-08-24T02:48:10.562Z,99.90
2022-08-24T02:50:42.705Z,99.90
2022-08-24T02:53:11.063Z,99.90
2022-08-24T02:55:39.522Z,99.90
2022-08-24T02:58:07.452Z,99.90
2022-08-24T03:00:36.470Z,99.90
2022-08-24T03:03:03.879Z,99.90
2022-08-24T03:05:31.056Z,99.90
2022-08-24T03:07:58.050Z,99.90
2022-08-24T03:10:25.642Z,99.90
2022-08-24T03:12:52.806Z,99.90
2022-08-24T03:15:23.367Z,99.90
2022-08-24T03:17:51.651Z,99.90
2022-08-24T03:20:21.408Z,99.90
2022-08-24T03:22:48.842Z,99.90
2022-08-24T03:25:18.293Z,99.90
2022-08-24T03:27:45.553Z,99.90
2022-08-24T03:30:15.032Z,99.90
2022-08-24T03:32:42.866Z,99.90
2022-08-24T03:35:13.552Z,99.90
2022-08-24T03:37:40.962Z,99.90
2022-08-24T03:40:22.365Z,99.90
2022-08-24T03:43:01.404Z,99.90
2022-08-24T03:45:29.099Z,99.90
2022-08-24T03:47:56.648Z,99.90
2022-08-24T03:50:24.367Z,99.90
2022-08-24T03:52:52.065Z,99.90
2022-08-24T03:55:19.255Z,99.90
2022-08-24T03:57:46.571Z,99.90
2022-08-24T04:00:15.062Z,99.90
2022-08-24T04:02:42.270Z,99.90
2022-08-24T04:05:10.773Z,99.90
2022-08-24T04:07:37.713Z,99.90
2022-08-24T04:10:05.039Z,99.90
2022-08-24T04:12:32.080Z,99.90
2022-08-24T04:14:59.291Z,99.90
2022-08-24T04:17:26.259Z,99.90
2022-08-24T04:19:59.434Z,99.90
2022-08-24T04:22:28.441Z,99.90
2022-08-24T04:24:56.179Z,99.90
2022-08-24T04:27:23.693Z,99.90
2022-08-24T04:29:51.336Z,99.90
2022-08-24T04:32:18.579Z,99.90
2022-08-24T04:34:47.038Z,99.90
2022-08-24T04:37:14.693Z,99.90
2022-08-24T04:39:42.703Z,99.90
2022-08-24T04:42:10.107Z,99.90
2022-08-24T04:44:39.765Z,99.90
2022-08-24T04:47:08.917Z,99.90
2022-08-24T04:49:38.283Z,99.90
2022-08-24T04:52:08.244Z,99.90
2022-08-24T04:54:35.335Z,99.90
2022-08-24T04:57:02.449Z,99.90
2022-08-24T04:59:29.430Z,99.90
2022-08-24T05:01:56.640Z,99.90
2022-08-24T05:04:24.419Z,99.90
2022-08-24T05:06:53.369Z,99.90
2022-08-24T05:09:21.685Z,99.90
2022-08-24T05:11:50.131Z,99.90
2022-08-24T05:14:17.313Z,99.90
2022-08-24T05:16:52.462Z,99.90
2022-08-24T05:19:20.915Z,99.90
2022-08-24T05:21:47.812Z,99.90
2022-08-24T05:24:14.730Z,99.90
2022-08-24T05:26:41.691Z,99.90
2022-08-24T05:29:09.575Z,99.90
2022-08-24T05:31:36.832Z,99.90
2022-08-24T05:34:04.915Z,99.90
2022-08-24T05:36:35.535Z,99.90
2022-08-24T05:39:09.256Z,99.90
2022-08-24T05:41:38.710Z,99.90
2022-08-24T05:44:12.822Z,99.90
2022-08-24T05:46:40.037Z,99.90
2022-08-24T05:49:08.342Z,99.90
2022-08-24T05:51:36.589Z,99.90
2022-08-24T05:54:05.293Z,99.90
2022-08-24T05:56:32.305Z,99.90
2022-08-24T05:58:59.447Z,99.90
2022-08-24T06:01:27.608Z,99.90
2022-08-24T06:03:58.925Z,99.90
2022-08-24T06:06:26.879Z,99.90
2022-08-24T06:08:56.937Z,99.90
2022-08-24T06:11:35.862Z,99.90
2022-08-24T06:14:16.604Z,99.90
2022-08-24T06:16:45.959Z,99.90
2022-08-24T06:19:15.815Z,99.90
2022-08-24T06:21:43.919Z,99.90
2022-08-24T06:24:11.076Z,99.90
2022-08-24T06:26:56.552Z,99.90
2022-08-24T06:29:23.786Z,99.90
2022-08-24T06:31:54.221Z,99.90
2022-08-24T06:34:23.515Z,99.90
2022-08-24T06:36:50.936Z,99.90
2022-08-24T06:39:18.900Z,99.90
2022-08-24T06:41:46.211Z,99.90
2022-08-24T06:44:13.132Z,99.90
2022-08-24T06:46:40.190Z,99.90
2022-08-24T06:49:08.121Z,99.90
2022-08-24T06:51:35.329Z,99.90
2022-08-24T06:54:02.712Z,99.90
2022-08-24T06:56:29.678Z,99.90
2022-08-24T06:58:56.720Z,99.90
2022-08-24T07:01:26.638Z,99.90
2022-08-24T07:03:54.140Z,99.90
2022-08-24T07:06:22.648Z,99.90
2022-08-24T07:08:49.938Z,99.90
2022-08-24T07:11:18.266Z,99.90
2022-08-24T07:13:49.705Z,99.90
2022-08-24T07:16:19.592Z,99.90
2022-08-24T07:18:50.005Z,99.90
2022-08-24T07:21:20.033Z,99.90
2022-08-24T07:23:48.695Z,99.90
2022-08-24T07:26:23.187Z,99.90
2022-08-24T07:28:52.239Z,99.90
2022-08-24T07:31:19.476Z,99.90
2022-08-24T07:33:46.749Z,99.90
2022-08-24T07:36:20.876Z,99.90
2022-08-24T07:38:52.447Z,99.90
2022-08-24T07:44:15.751Z,99.90
2022-08-24T07:46:43.018Z,99.90
2022-08-24T07:49:28.014Z,99.90
2022-08-24T07:51:58.350Z,99.90
2022-08-24T07:54:26.167Z,99.90
2022-08-24T07:56:53.097Z,99.90
2022-08-24T07:59:20.220Z,99.90
2022-08-24T08:01:47.497Z,99.90
2022-08-24T08:04:15.443Z,99.90
2022-08-24T08:06:43.251Z,99.90
2022-08-24T08:09:10.239Z,99.90
2022-08-24T08:11:37.113Z,99.90
2022-08-24T08:14:04.254Z,99.90
2022-08-24T08:16:31.856Z,99.90
2022-08-24T08:19:14.320Z,99.90
2022-08-24T08:22:09.245Z,99.90
2022-08-24T08:24:43.745Z,99.90
2022-08-24T08:27:12.365Z,99.90
2022-08-24T08:29:41.045Z,99.90
2022-08-24T08:32:09.723Z,99.90
2022-08-24T08:34:36.679Z,99.90
2022-08-24T08:37:04.473Z,99.90
2022-08-24T08:39:32.886Z,99.90
2022-08-24T08:42:19.172Z,99.90
2022-08-24T08:45:23.099Z,99.90
2022-08-24T08:48:22.223Z,99.90
2022-08-24T08:51:12.063Z,99.90
2022-08-24T08:53:57.773Z,99.90
2022-08-24T08:56:40.611Z,99.90
2022-08-24T08:59:38.323Z,99.90
2022-08-24T09:02:14.543Z,99.90
2022-08-24T09:04:44.615Z,99.90
2022-08-24T09:07:15.854Z,99.90
2022-08-24T09:09:48.573Z,99.90
2022-08-24T09:12:44.882Z,99.90
2022-08-24T09:15:36.757Z,99.90
2022-08-24T09:18:41.402Z,99.90
2022-08-24T09:21:20.363Z,99.90
2022-08-24T09:24:16.913Z,99.90
2022-08-24T09:27:11.850Z,99.90
2022-08-24T09:29:48.143Z,99.90
2022-08-24T09:32:39.109Z,99.90
2022-08-24T09:35:12.361Z,99.90
2022-08-24T09:38:29.975Z,99.90
2022-08-24T09:41:32.173Z,99.90
2022-08-24T09:44:04.903Z,99.90
2022-08-24T09:47:07.090Z,99.90
2022-08-24T09:49:59.673Z,99.90
2022-08-24T09:52:48.301Z,99.90
2022-08-24T09:55:39.808Z,99.90
2022-08-24T09:58:31.606Z,99.90
2022-08-24T10:01:02.347Z,99.90
2022-08-24T10:03:54.880Z,99.90
2022-08-24T10:06:46.271Z,99.90
2022-08-24T10:09:34.381Z,99.90
2022-08-24T10:12:37.643Z,99.90
2022-08-24T10:15:11.739Z,99.90
2022-08-24T10:18:14.879Z,99.90
2022-08-24T10:21:00.222Z,99.90
2022-08-24T10:23:39.178Z,99.90
2022-08-24T10:26:30.446Z,99.90
2022-08-24T10:29:10.805Z,99.90
2022-08-24T10:32:17.086Z,99.90
2022-08-24T10:35:14.669Z,99.90
2022-08-24T10:38:38.221Z,99.90
2022-08-24T10:41:30.335Z,99.90
2022-08-24T10:44:25.591Z,99.90
2022-08-24T10:47:01.151Z,99.90
2022-08-24T10:49:37.512Z,99.90
2022-08-24T10:52:26.332Z,99.90
2022-08-24T10:54:53.887Z,99.90
2022-08-24T10:57:31.100Z,99.90
2022-08-24T11:00:22.961Z,99.90
2022-08-24T11:03:16.255Z,99.90
2022-08-24T11:05:50.048Z,99.90
2022-08-24T11:08:27.083Z,99.90
2022-08-24T11:11:10.966Z,99.90
2022-08-24T11:13:50.531Z,99.90
2022-08-24T11:16:26.037Z,99.90
2022-08-24T11:18:56.028Z,99.90
2022-08-24T11:22:01.949Z,99.90
2022-08-24T11:24:45.293Z,99.90
2022-08-24T11:27:18.181Z,99.90
2022-08-24T11:29:53.545Z,99.90
2022-08-24T11:32:51.936Z,99.90
2022-08-24T11:35:48.173Z,99.90
2022-08-24T11:38:21.343Z,99.90
2022-08-24T11:40:53.875Z,99.90
2022-08-24T11:43:32.274Z,99.90
2022-08-24T11:46:20.625Z,99.90
2022-08-24T11:49:11.917Z,99.90
2022-08-24T11:52:11.113Z,99.90
2022-08-24T11:55:02.150Z,99.90
2022-08-24T11:57:48.401Z,99.90
2022-08-24T12:00:22.326Z,99.90
2022-08-24T12:03:03.187Z,99.90
2022-08-24T12:05:58.012Z,99.90
2022-08-24T12:08:33.955Z,99.90
2022-08-24T12:11:10.746Z,99.90
2022-08-24T12:13:59.547Z,99.90
2022-08-24T12:16:38.940Z,99.90
2022-08-24T12:19:28.313Z,99.90
2022-08-24T12:22:02.149Z,99.90
2022-08-24T12:24:32.064Z,99.90
2022-08-24T12:27:07.483Z,99.90
2022-08-24T12:29:57.121Z,99.90
2022-08-24T12:32:24.059Z,99.90
2022-08-24T12:35:08.374Z,99.90
2022-08-24T12:37:43.834Z,99.90
2022-08-24T12:40:32.323Z,99.90
2022-08-24T12:43:12.261Z,99.90
2022-08-24T12:45:39.445Z,99.90
2022-08-24T12:48:06.340Z,99.90
2022-08-24T12:50:46.631Z,99.90
2022-08-24T12:53:37.687Z,99.90
2022-08-24T12:56:29.296Z,99.90
2022-08-24T12:59:15.075Z,99.90
2022-08-24T13:01:59.247Z,99.90
2022-08-24T13:04:40.536Z,99.90
2022-08-24T13:07:19.667Z,99.90
2022-08-24T13:10:02.220Z,99.90
2022-08-24T13:12:45.167Z,99.90
2022-08-24T13:15:28.092Z,99.90
2022-08-24T13:18:21.263Z,99.90
2022-08-24T13:20:49.406Z,99.90
2022-08-24T13:23:23.683Z,99.90
2022-08-24T13:26:17.729Z,99.90
2022-08-24T13:28:48.943Z,99.90
2022-08-24T13:31:19.897Z,99.90
2022-08-24T13:34:09.473Z,99.90
2022-08-24T13:37:07.382Z,99.90
2022-08-24T13:39:56.405Z,99.90
2022-08-24T13:42:51.734Z,99.90
2022-08-24T13:45:23.655Z,99.90
2022-08-24T13:48:09.094Z,99.90
2022-08-24T13:51:04.013Z,99.90
2022-08-24T13:53:47.873Z,99.90
2022-08-24T13:56:33.385Z,99.90
2022-08-24T13:59:13.157Z,99.90
2022-08-24T14:02:32.640Z,99.90
2022-08-24T14:05:19.151Z,99.90
2022-08-24T14:08:10.604Z,99.90
2022-08-24T14:11:01.927Z,98.80
2022-08-24T14:13:48.229Z,98.20
2022-08-24T14:16:48.940Z,98.30
2022-08-24T14:19:21.283Z,96.70
2022-08-24T14:22:03.383Z,96.40
2022-08-24T14:24:47.843Z,95.90
2022-08-24T14:27:48.322Z,96.30
2022-08-24T14:30:18.418Z,95.60
2022-08-24T14:33:14.069Z,95.80
2022-08-24T14:35:42.163Z,94.90
2022-08-24T14:38:15.086Z,96.10
2022-08-24T14:41:20.720Z,96.20
2022-08-24T14:44:26.582Z,95.10
2022-08-24T14:47:16.640Z,95.30
2022-08-24T14:50:07.081Z,96.40
2022-08-24T14:52:56.121Z,95.80
2022-08-24T14:55:29.002Z,97.30
2022-08-24T14:58:31.142Z,97.40
2022-08-24T15:01:29.156Z,97.00
2022-08-24T15:04:33.987Z,97.50
2022-08-24T15:07:30.157Z,97.70
2022-08-24T15:09:58.340Z,97.50
2022-08-24T15:12:37.482Z,97.00
2022-08-24T15:15:34.213Z,97.50
2022-08-24T15:18:16.832Z,97.50
2022-08-24T15:20:59.417Z,98.40
2022-08-24T15:24:01.536Z,98.60
2022-08-24T15:26:38.141Z,98.30
2022-08-24T15:29:17.952Z,98.80
2022-08-24T15:32:02.892Z,98.80
2022-08-24T15:34:42.851Z,99.60
2022-08-24T15:37:10.858Z,99.60
2022-08-24T15:39:38.283Z,99.90
2022-08-24T15:42:13.983Z,99.60
2022-08-24T15:44:45.139Z,99.90
2022-08-24T15:47:24.599Z,99.90
2022-08-24T15:49:57.164Z,99.90
2022-08-24T15:52:50.058Z,99.90
2022-08-24T15:55:31.877Z,99.90
2022-08-24T15:58:32.505Z,99.90
2022-08-24T16:01:40.108Z,99.90
2022-08-24T16:04:15.056Z,99.90
2022-08-24T16:06:45.272Z,99.90
2022-08-24T16:09:12.164Z,99.90
2022-08-24T16:11:45.729Z,99.90
2022-08-24T16:14:31.690Z,99.90
2022-08-24T16:17:05.075Z,99.90
2022-08-24T16:19:34.909Z,99.90
2022-08-24T16:22:10.768Z,99.90
2022-08-24T16:24:40.473Z,99.90
2022-08-24T16:27:14.470Z,99.90
2022-08-24T16:29:42.086Z,99.40
2022-08-24T16:32:29.952Z,99.90
2022-08-24T16:35:10.899Z,99.90
2022-08-24T16:37:39.447Z,99.90
2022-08-24T16:40:08.614Z,99.90
2022-08-24T16:42:36.372Z,99.90
2022-08-24T16:45:06.231Z,99.90
2022-08-24T16:47:33.315Z,99.90
2022-08-24T16:50:00.330Z,99.90
2022-08-24T16:52:27.497Z,99.90
2022-08-24T16:54:55.050Z,99.90
2022-08-24T16:57:25.355Z,99.90
2022-08-24T16:59:53.646Z,99.90
2022-08-24T17:02:22.483Z,99.90
2022-08-24T17:04:50.233Z,99.90
2022-08-24T17:07:24.111Z,99.90
2022-08-24T17:09:51.878Z,99.90
2022-08-24T17:12:19.392Z,99.90
2022-08-24T17:14:46.552Z,99.90
2022-08-24T17:17:16.942Z,99.90
2022-08-24T17:19:46.309Z,99.90
2022-08-24T17:22:16.392Z,99.90
2022-08-24T17:24:44.576Z,99.90
2022-08-24T17:27:13.429Z,99.90
2022-08-24T17:29:42.382Z,99.90
2022-08-24T17:32:09.662Z,99.90
2022-08-24T17:34:36.699Z,99.90
2022-08-24T17:37:04.633Z,99.90
2022-08-24T17:39:31.970Z,99.90
2022-08-24T17:42:00.489Z,99.90
2022-08-24T17:44:32.149Z,99.90
2022-08-24T17:47:00.823Z,99.90
2022-08-24T17:49:28.351Z,99.90
2022-08-24T17:51:56.108Z,99.90
2022-08-24T17:54:23.110Z,99.90
2022-08-24T17:56:51.166Z,99.90
2022-08-24T17:59:29.230Z,99.90
2022-08-24T18:01:59.067Z,99.90
2022-08-24T18:04:30.074Z,99.90
2022-08-24T18:07:11.929Z,99.90
2022-08-24T18:09:48.031Z,99.90
2022-08-24T18:12:21.171Z,99.90
2022-08-24T18:14:48.986Z,99.90
2022-08-24T18:17:22.690Z,99.90
2022-08-24T18:19:52.912Z,99.90
2022-08-24T18:22:20.464Z,99.90
2022-08-24T18:24:47.513Z,99.90
2022-08-24T18:27:19.767Z,99.90
2022-08-24T18:29:54.832Z,99.90
2022-08-24T18:32:24.511Z,99.90
2022-08-24T18:34:58.147Z,99.90
2022-08-24T18:37:25.437Z,99.90
2022-08-24T18:39:52.906Z,99.90
2022-08-24T18:42:20.099Z,99.90
2022-08-24T18:44:47.266Z,99.90
2022-08-24T18:47:14.716Z,99.90
2022-08-24T18:49:41.846Z,99.90
2022-08-24T18:52:12.424Z,99.90
2022-08-24T18:54:42.672Z,99.90
2022-08-24T18:57:09.829Z,99.90
2022-08-24T18:59:40.718Z,99.90
2022-08-24T19:02:35.831Z,99.90
2022-08-24T19:05:14.899Z,99.90
2022-08-24T19:07:45.456Z,99.90
2022-08-24T19:10:16.784Z,99.90
2022-08-24T19:12:47.606Z,99.90
2022-08-24T19:15:32.281Z,99.90
2022-08-24T19:18:05.457Z,99.90
2022-08-24T19:20:33.848Z,99.90
2022-08-24T19:23:08.584Z,99.90
2022-08-24T19:25:41.167Z,99.90
2022-08-24T19:28:08.504Z,99.90
2022-08-24T19:30:36.040Z,99.90
2022-08-24T19:33:03.641Z,99.90
2022-08-24T19:35:34.392Z,99.90
2022-08-24T19:38:01.974Z,99.90
2022-08-24T19:40:29.573Z,99.90
2022-08-24T19:42:57.278Z,99.90
2022-08-24T19:45:44.812Z,99.90
2022-08-24T19:48:12.842Z,99.90
2022-08-24T19:50:42.347Z,99.90
2022-08-24T19:53:10.464Z,99.90
2022-08-24T19:55:37.640Z,99.90
2022-08-24T19:58:16.391Z,99.90
2022-08-24T20:00:48.204Z,99.90
2022-08-24T20:03:19.184Z,99.90
2022-08-24T20:05:46.108Z,99.90
2022-08-24T20:08:15.428Z,99.90
2022-08-24T20:10:42.379Z,99.90
2022-08-24T20:13:09.417Z,99.90
2022-08-24T20:15:36.968Z,99.90
2022-08-24T20:18:04.654Z,99.90
2022-08-24T20:20:32.880Z,99.90
2022-08-24T20:23:06.414Z,99.90
2022-08-24T20:25:39.554Z,99.90
2022-08-24T20:28:28.748Z,99.90
2022-08-24T20:30:57.088Z,99.90
2022-08-24T20:33:24.958Z,99.90
2022-08-24T20:35:51.931Z,99.90
2022-08-24T20:38:21.596Z,99.90
2022-08-24T20:40:50.281Z,99.90
2022-08-24T20:43:18.096Z,99.90
2022-08-24T20:45:45.788Z,99.90
2022-08-24T20:48:17.527Z,99.90
2022-08-24T20:50:45.096Z,99.90
2022-08-24T20:53:12.679Z,99.90
2022-08-24T20:55:41.416Z,99.90
2022-08-24T20:58:10.519Z,99.90
2022-08-24T21:00:37.954Z,99.90
2022-08-24T21:03:05.313Z,99.90
2022-08-24T21:05:32.865Z,99.90
2022-08-24T21:07:59.978Z,99.90
2022-08-24T21:10:27.768Z,99.90
2022-08-24T21:12:55.351Z,99.90
2022-08-24T21:15:24.122Z,99.90
2022-08-24T21:17:51.732Z,99.90
2022-08-24T21:20:19.239Z,99.90
2022-08-24T21:22:46.486Z,99.90
2022-08-24T21:25:15.187Z,99.90
2022-08-24T21:27:46.192Z,99.90
2022-08-24T21:30:17.325Z,99.90
2022-08-24T21:33:05.752Z,99.90
2022-08-24T21:35:36.366Z,99.90
2022-08-24T21:38:04.922Z,99.90
2022-08-24T21:40:32.065Z,99.90
2022-08-24T21:42:59.219Z,99.90
2022-08-24T21:45:27.175Z,99.90
2022-08-24T21:47:54.564Z,99.90
2022-08-24T21:50:25.591Z,99.90
2022-08-24T21:52:54.035Z,99.90
2022-08-24T21:55:21.546Z,99.90
2022-08-24T21:57:49.167Z,99.90
2022-08-24T22:00:19.011Z,99.90
2022-08-24T22:02:48.137Z,99.90
2022-08-24T22:05:17.232Z,99.90
2022-08-24T22:07:44.575Z,99.90
2022-08-24T22:10:12.699Z,99.90
2022-08-24T22:12:42.833Z,99.90
2022-08-24T22:15:13.199Z,99.90
2022-08-24T22:17:40.603Z,99.90
2022-08-24T22:20:15.112Z,99.90
2022-08-24T22:22:51.153Z,99.90
2022-08-24T22:25:18.657Z,99.90
2022-08-24T22:27:47.305Z,99.90
2022-08-24T22:30:17.565Z,99.90
2022-08-24T22:32:46.369Z,99.90
2022-08-24T22:35:14.352Z,99.90
2022-08-24T22:37:41.851Z,99.90
2022-08-24T22:40:12.392Z,99.90
2022-08-24T22:42:40.529Z,99.90
2022-08-24T22:45:09.988Z,99.90
2022-08-24T22:47:38.133Z,99.90
2022-08-24T22:50:06.034Z,99.90
2022-08-24T22:52:33.113Z,99.90
2022-08-24T22:55:00.271Z,99.90
2022-08-24T22:57:27.155Z,99.90
2022-08-24T22:59:56.250Z,99.90
2022-08-24T23:02:23.849Z,99.90
2022-08-24T23:04:53.412Z,99.90
2022-08-24T23:53:05.334Z,99.90
2022-08-24T23:55:32.688Z,99.90
2022-08-24T23:57:59.694Z,99.90
